Time;durP1;ratioP1;P1;durP2;ratioP2;P2;SDS_P1;SDS_P2;PMS_P1;PMS_P2;Temp;Humidity;BMP_temperature;BMP_pressure;BME280_temperature;BME280_humidity;BME280_pressure;Samples;Min_cycle;Max_cycle;Signal;HPM_P1;HPM_P2
2023/03/03 00:00:36;;;;;;;;;;;1.60;99.90;;;;;;5077626;28;20539;-81
2023/03/03 00:03:04;;;;;;;;;;;1.50;99.90;;;;;;5076287;28;19979;-81
2023/03/03 00:05:31;;;;;;;;;;;1.60;99.90;;;;;;5090399;28;19980;-81
2023/03/03 00:07:56;;;;;;;;;;;1.60;99.90;;;;;;5090000;28;20321;-81
2023/03/03 00:10:22;;;;;;;;;;;1.60;99.90;;;;;;5062047;28;19989;-81
2023/03/03 00:12:48;;;;;;;;;;;1.50;99.90;;;;;;5054736;28;19928;-81
2023/03/03 00:15:15;;;;;;;;;;;1.60;99.90;;;;;;5097450;28;19935;-81
2023/03/03 00:17:41;;;;;;;;;;;1.60;99.90;;;;;;5094578;28;20445;-81
2023/03/03 00:20:25;;;;;;;;;;;1.60;99.90;;;;;;5077638;28;19924;-81
2023/03/03 00:22:51;;;;;;;;;;;1.60;99.90;;;;;;5076998;28;19924;-81
2023/03/03 00:25:30;;;;;;;;;;;1.60;99.90;;;;;;5058518;28;19952;-81
2023/03/03 00:28:07;;;;;;;;;;;1.60;99.90;;;;;;5071610;28;19931;-81
2023/03/03 00:30:33;;;;;;;;;;;1.60;99.90;;;;;;5090379;28;20345;-82
2023/03/03 00:32:58;;;;;;;;;;;1.60;99.90;;;;;;5053627;28;19924;-81
2023/03/03 00:35:26;;;;;;;;;;;1.60;99.90;;;;;;5057790;28;19924;-81
2023/03/03 00:37:56;;;;;;;;;;;1.60;99.90;;;;;;5072055;28;20030;-81
2023/03/03 00:40:40;;;;;;;;;;;1.60;99.90;;;;;;5096062;28;20711;-81
2023/03/03 00:43:18;;;;;;;;;;;1.70;99.90;;;;;;5064720;28;19988;-81
2023/03/03 00:45:46;;;;;;;;;;;1.60;99.90;;;;;;5067373;28;19928;-81
2023/03/03 00:48:15;;;;;;;;;;;1.60;99.90;;;;;;5097401;28;19950;-81
2023/03/03 00:50:42;;;;;;;;;;;1.60;99.90;;;;;;5077996;28;19928;-81
2023/03/03 00:53:12;;;;;;;;;;;1.60;99.90;;;;;;5080727;28;19946;-81
2023/03/03 00:55:39;;;;;;;;;;;1.60;99.90;;;;;;5076337;28;20003;-81
2023/03/03 00:58:05;;;;;;;;;;;1.60;99.90;;;;;;5082344;28;19946;-81
2023/03/03 01:00:31;;;;;;;;;;;1.60;99.90;;;;;;5076640;28;20321;-81
2023/03/03 01:02:58;;;;;;;;;;;1.60;99.90;;;;;;5098736;28;19924;-81
2023/03/03 01:05:24;;;;;;;;;;;1.60;99.90;;;;;;5075675;28;19924;-81
2023/03/03 01:07:50;;;;;;;;;;;1.60;99.90;;;;;;5099033;28;19931;-81
2023/03/03 01:10:15;;;;;;;;;;;1.60;99.90;;;;;;5075749;28;20019;-81
2023/03/03 01:12:41;;;;;;;;;;;1.60;99.90;;;;;;5081195;28;19924;-81
2023/03/03 01:15:12;;;;;;;;;;;1.60;99.90;;;;;;5062309;28;19931;-81
2023/03/03 01:17:38;;;;;;;;;;;1.70;99.90;;;;;;5080291;28;19931;-81
2023/03/03 01:20:05;;;;;;;;;;;1.70;99.90;;;;;;5076926;28;19950;-82
2023/03/03 01:22:31;;;;;;;;;;;1.60;99.90;;;;;;5078728;28;19928;-81
2023/03/03 01:24:56;;;;;;;;;;;1.70;99.90;;;;;;5079149;28;19991;-81
2023/03/03 01:27:22;;;;;;;;;;;1.70;99.90;;;;;;5063388;28;20015;-81
2023/03/03 01:29:47;;;;;;;;;;;1.60;99.90;;;;;;5063123;28;19986;-81
2023/03/03 01:32:13;;;;;;;;;;;1.70;99.90;;;;;;5064716;28;19966;-81
2023/03/03 01:34:38;;;;;;;;;;;1.70;99.90;;;;;;5062098;28;19931;-81
2023/03/03 01:37:04;;;;;;;;;;;1.60;99.90;;;;;;5064901;28;19929;-81
2023/03/03 01:39:29;;;;;;;;;;;1.70;99.90;;;;;;5091468;28;20045;-81
2023/03/03 01:41:55;;;;;;;;;;;1.70;99.90;;;;;;5064719;28;19924;-81
2023/03/03 01:44:21;;;;;;;;;;;1.70;99.90;;;;;;5069314;28;19924;-81
2023/03/03 01:46:49;;;;;;;;;;;1.60;99.90;;;;;;5063367;28;19935;-81
2023/03/03 01:49:17;;;;;;;;;;;1.60;99.90;;;;;;5079460;28;20318;-81
2023/03/03 01:51:48;;;;;;;;;;;1.60;99.90;;;;;;5071863;28;19933;-81
2023/03/03 01:54:16;;;;;;;;;;;1.60;99.90;;;;;;5065191;28;19928;-81
2023/03/03 01:56:41;;;;;;;;;;;1.60;99.90;;;;;;5079540;28;20351;-81
2023/03/03 01:59:17;;;;;;;;;;;1.60;99.90;;;;;;5058545;28;19939;-81
2023/03/03 02:01:44;;;;;;;;;;;1.50;99.90;;;;;;5059770;28;19940;-81
2023/03/03 02:04:10;;;;;;;;;;;1.60;99.90;;;;;;5061301;28;19982;-81
2023/03/03 02:06:37;;;;;;;;;;;1.50;99.90;;;;;;5060519;28;20213;-81
2023/03/03 02:09:06;;;;;;;;;;;1.60;99.90;;;;;;5065143;28;19935;-81
2023/03/03 02:11:33;;;;;;;;;;;1.50;99.90;;;;;;5081076;28;19943;-81
2023/03/03 02:13:59;;;;;;;;;;;1.50;99.90;;;;;;5072595;28;20015;-81
2023/03/03 02:16:24;;;;;;;;;;;1.60;99.90;;;;;;5049706;28;19974;-81
2023/03/03 02:18:50;;;;;;;;;;;1.50;99.90;;;;;;5091992;28;19932;-81
2023/03/03 02:21:20;;;;;;;;;;;1.60;99.90;;;;;;5113504;28;19923;-81
2023/03/03 02:23:48;;;;;;;;;;;1.60;99.90;;;;;;5059995;28;19967;-81
2023/03/03 02:26:15;;;;;;;;;;;1.60;99.90;;;;;;5092134;28;19988;-81
2023/03/03 02:28:41;;;;;;;;;;;1.50;99.90;;;;;;5061610;28;19967;-81
2023/03/03 02:31:11;;;;;;;;;;;1.60;99.90;;;;;;5073903;28;19931;-81
2023/03/03 02:33:38;;;;;;;;;;;1.60;99.90;;;;;;5073321;28;20295;-81
2023/03/03 02:36:03;;;;;;;;;;;1.60;99.90;;;;;;5055384;28;19938;-81
2023/03/03 02:38:38;;;;;;;;;;;1.60;99.90;;;;;;5117732;27;19971;-81
2023/03/03 02:41:23;;;;;;;;;;;1.50;99.90;;;;;;5079094;28;19937;-81
2023/03/03 02:43:55;;;;;;;;;;;1.60;99.90;;;;;;5061767;28;20320;-81
2023/03/03 02:46:20;;;;;;;;;;;1.60;99.90;;;;;;5107415;28;19924;-81
2023/03/03 02:48:46;;;;;;;;;;;1.60;99.90;;;;;;5078847;28;19977;-81
2023/03/03 02:51:12;;;;;;;;;;;1.60;99.90;;;;;;5078302;28;19946;-81
2023/03/03 02:53:37;;;;;;;;;;;1.60;99.90;;;;;;5062540;28;20019;-81
2023/03/03 02:56:03;;;;;;;;;;;1.60;99.90;;;;;;5052674;28;19951;-81
2023/03/03 02:58:29;;;;;;;;;;;1.60;99.90;;;;;;5057222;28;19924;-81
2023/03/03 03:00:54;;;;;;;;;;;1.60;99.90;;;;;;5065417;28;19924;-81
2023/03/03 03:03:20;;;;;;;;;;;1.60;99.90;;;;;;5079754;28;19924;-81
2023/03/03 03:05:45;;;;;;;;;;;1.60;99.90;;;;;;5061325;28;19955;-81
2023/03/03 03:08:11;;;;;;;;;;;1.60;99.90;;;;;;5069012;28;19933;-81
2023/03/03 03:10:37;;;;;;;;;;;1.70;99.90;;;;;;5058327;28;19924;-81
2023/03/03 03:13:03;;;;;;;;;;;1.70;99.90;;;;;;5077981;28;19927;-81
2023/03/03 03:15:29;;;;;;;;;;;1.70;99.90;;;;;;5062888;28;19928;-81
2023/03/03 03:17:54;;;;;;;;;;;1.70;99.90;;;;;;5061587;28;20058;-81
2023/03/03 03:20:20;;;;;;;;;;;1.80;99.90;;;;;;5063419;28;20286;-81
2023/03/03 03:22:46;;;;;;;;;;;1.80;99.90;;;;;;5067790;28;20011;-81
2023/03/03 03:25:11;;;;;;;;;;;1.80;99.90;;;;;;5079542;28;19943;-81
2023/03/03 03:27:37;;;;;;;;;;;1.80;99.90;;;;;;5078486;28;19969;-81
2023/03/03 03:30:03;;;;;;;;;;;1.80;99.90;;;;;;5078246;28;19977;-81
2023/03/03 03:32:28;;;;;;;;;;;1.80;99.90;;;;;;5058850;28;19929;-81
2023/03/03 03:34:54;;;;;;;;;;;1.80;99.90;;;;;;5087801;28;20019;-81
2023/03/03 03:37:20;;;;;;;;;;;1.80;99.90;;;;;;5072175;28;19970;-81
2023/03/03 03:39:45;;;;;;;;;;;1.80;99.90;;;;;;5077363;28;19987;-81
2023/03/03 03:42:11;;;;;;;;;;;1.90;99.90;;;;;;5077619;28;19935;-81
2023/03/03 03:44:37;;;;;;;;;;;1.90;99.90;;;;;;5058049;28;20358;-80
2023/03/03 03:47:02;;;;;;;;;;;1.90;99.90;;;;;;5078505;28;20394;-80
2023/03/03 03:49:28;;;;;;;;;;;2.00;99.90;;;;;;5062458;28;19959;-81
2023/03/03 03:51:53;;;;;;;;;;;2.00;99.90;;;;;;5066697;28;19935;-81
2023/03/03 03:54:19;;;;;;;;;;;2.00;99.90;;;;;;5075273;28;20223;-81
2023/03/03 03:56:45;;;;;;;;;;;2.00;99.90;;;;;;5072895;28;19984;-81
2023/03/03 03:59:10;;;;;;;;;;;2.10;99.90;;;;;;5103347;28;19946;-81
2023/03/03 04:01:36;;;;;;;;;;;2.00;99.90;;;;;;5076865;28;20538;-81
2023/03/03 04:04:03;;;;;;;;;;;2.00;99.90;;;;;;5060748;28;20252;-81
2023/03/03 04:06:28;;;;;;;;;;;2.00;99.90;;;;;;5062105;28;19924;-81
2023/03/03 04:08:54;;;;;;;;;;;2.10;99.90;;;;;;5060528;28;19930;-81
2023/03/03 04:11:19;;;;;;;;;;;2.10;99.90;;;;;;5083034;28;19939;-81
2023/03/03 04:13:45;;;;;;;;;;;2.10;99.90;;;;;;5060098;28;19996;-81
2023/03/03 04:16:11;;;;;;;;;;;2.20;99.90;;;;;;5100026;28;19924;-81
2023/03/03 04:18:36;;;;;;;;;;;2.20;99.90;;;;;;5081434;28;19930;-81
2023/03/03 04:21:02;;;;;;;;;;;2.20;99.90;;;;;;5099327;28;19924;-81
2023/03/03 04:23:28;;;;;;;;;;;2.20;99.90;;;;;;5071399;28;19924;-81
2023/03/03 04:25:53;;;;;;;;;;;2.20;99.90;;;;;;5095300;28;19924;-81
2023/03/03 04:28:20;;;;;;;;;;;2.20;99.90;;;;;;5082651;28;19946;-81
2023/03/03 04:30:46;;;;;;;;;;;2.30;99.90;;;;;;5080859;28;19935;-81
2023/03/03 04:33:12;;;;;;;;;;;2.30;99.90;;;;;;5082671;28;19924;-81
2023/03/03 04:35:37;;;;;;;;;;;2.30;99.90;;;;;;5080310;28;19973;-81
2023/03/03 04:38:04;;;;;;;;;;;2.20;99.90;;;;;;5081397;28;19931;-82
2023/03/03 04:40:30;;;;;;;;;;;2.20;99.90;;;;;;5061751;28;19924;-81
2023/03/03 04:42:55;;;;;;;;;;;2.20;99.90;;;;;;5077980;28;19935;-81
2023/03/03 04:45:21;;;;;;;;;;;2.20;99.90;;;;;;5064660;28;19939;-81
2023/03/03 04:47:46;;;;;;;;;;;2.30;99.90;;;;;;5080391;28;19924;-81
2023/03/03 04:50:12;;;;;;;;;;;2.30;99.90;;;;;;5082474;28;19924;-81
2023/03/03 04:52:38;;;;;;;;;;;2.30;99.90;;;;;;5079925;28;19924;-81
2023/03/03 04:55:03;;;;;;;;;;;2.30;99.90;;;;;;5065386;28;19927;-81
2023/03/03 04:57:29;;;;;;;;;;;2.30;99.90;;;;;;5077443;28;19951;-81
2023/03/03 04:59:55;;;;;;;;;;;2.30;99.90;;;;;;5080973;28;19924;-81
2023/03/03 05:02:21;;;;;;;;;;;2.30;99.90;;;;;;5099013;28;19970;-81
2023/03/03 05:04:46;;;;;;;;;;;2.30;99.90;;;;;;5080176;28;19931;-81
2023/03/03 05:07:12;;;;;;;;;;;2.30;99.90;;;;;;5061936;28;19970;-81
2023/03/03 05:09:37;;;;;;;;;;;2.30;99.90;;;;;;5051966;28;19926;-81
2023/03/03 05:12:03;;;;;;;;;;;2.30;99.90;;;;;;5081749;28;19935;-81
2023/03/03 05:14:30;;;;;;;;;;;2.30;99.90;;;;;;5080330;28;19924;-81
2023/03/03 05:16:55;;;;;;;;;;;2.30;99.90;;;;;;5063704;28;19924;-81
2023/03/03 05:19:21;;;;;;;;;;;2.30;99.90;;;;;;5065466;28;20009;-81
2023/03/03 05:21:46;;;;;;;;;;;2.30;99.90;;;;;;5062828;28;19928;-81
2023/03/03 05:24:12;;;;;;;;;;;2.30;99.90;;;;;;5062991;28;19946;-81
2023/03/03 05:26:39;;;;;;;;;;;2.30;99.90;;;;;;5074651;28;19942;-81
2023/03/03 05:29:05;;;;;;;;;;;2.30;99.90;;;;;;5080445;28;19970;-81
2023/03/03 05:31:30;;;;;;;;;;;2.30;99.90;;;;;;5079478;28;19935;-81
2023/03/03 05:33:56;;;;;;;;;;;2.30;99.90;;;;;;5132068;27;19924;-82
2023/03/03 05:36:22;;;;;;;;;;;2.30;99.90;;;;;;5064761;28;19928;-81
2023/03/03 05:38:47;;;;;;;;;;;2.30;99.90;;;;;;5078900;28;19928;-81
2023/03/03 05:41:13;;;;;;;;;;;2.30;99.90;;;;;;5064778;28;19935;-81
2023/03/03 05:43:38;;;;;;;;;;;2.30;99.90;;;;;;5079466;28;19924;-81
2023/03/03 05:46:04;;;;;;;;;;;2.30;99.90;;;;;;5064492;28;19978;-82
2023/03/03 05:48:29;;;;;;;;;;;2.30;99.90;;;;;;5060358;28;20276;-81
2023/03/03 05:50:58;;;;;;;;;;;2.40;99.90;;;;;;5069916;28;19928;-81
2023/03/03 05:53:24;;;;;;;;;;;2.30;99.90;;;;;;5096929;28;19932;-82
2023/03/03 05:55:50;;;;;;;;;;;2.30;99.90;;;;;;5079730;28;19928;-82
2023/03/03 05:58:15;;;;;;;;;;;2.30;99.90;;;;;;5064350;28;19979;-81
2023/03/03 06:00:41;;;;;;;;;;;2.30;99.90;;;;;;5061907;28;19924;-82
2023/03/03 06:03:06;;;;;;;;;;;2.40;99.90;;;;;;5064375;28;20515;-81
2023/03/03 06:05:32;;;;;;;;;;;2.40;99.90;;;;;;5079219;28;19974;-82
2023/03/03 06:07:58;;;;;;;;;;;2.40;99.90;;;;;;5063898;28;19966;-82
2023/03/03 06:10:24;;;;;;;;;;;2.40;99.90;;;;;;5087743;28;19931;-82
2023/03/03 06:12:50;;;;;;;;;;;2.40;99.90;;;;;;5079619;28;19963;-82
2023/03/03 06:15:16;;;;;;;;;;;2.40;99.90;;;;;;5080699;28;20373;-82
2023/03/03 06:17:41;;;;;;;;;;;2.40;99.90;;;;;;5062154;28;19987;-82
2023/03/03 06:20:07;;;;;;;;;;;2.40;99.90;;;;;;5074615;28;19947;-81
2023/03/03 06:22:33;;;;;;;;;;;2.30;99.90;;;;;;5058772;28;19954;-82
2023/03/03 06:24:58;;;;;;;;;;;2.40;99.90;;;;;;5080290;28;19988;-82
2023/03/03 06:27:24;;;;;;;;;;;2.40;99.90;;;;;;5079275;28;19924;-81
2023/03/03 06:29:49;;;;;;;;;;;2.40;99.90;;;;;;5062281;28;19928;-82
2023/03/03 06:32:15;;;;;;;;;;;2.40;99.90;;;;;;5063683;28;19977;-81
2023/03/03 06:34:41;;;;;;;;;;;2.40;99.90;;;;;;5062135;28;19979;-81
2023/03/03 06:37:06;;;;;;;;;;;2.40;99.90;;;;;;5081141;28;20014;-81
2023/03/03 06:39:32;;;;;;;;;;;2.50;99.90;;;;;;5093218;28;19975;-82
2023/03/03 06:41:57;;;;;;;;;;;2.50;99.90;;;;;;5102314;28;19946;-81
2023/03/03 06:44:23;;;;;;;;;;;2.50;99.90;;;;;;5061871;28;19928;-82
2023/03/03 06:46:49;;;;;;;;;;;2.50;99.90;;;;;;5095677;28;19924;-82
2023/03/03 06:49:15;;;;;;;;;;;2.60;99.90;;;;;;5079169;28;19924;-81
2023/03/03 06:51:41;;;;;;;;;;;2.60;99.90;;;;;;5077469;28;19970;-81
2023/03/03 06:54:12;;;;;;;;;;;2.60;99.90;;;;;;5079952;28;20033;-81
2023/03/03 06:56:38;;;;;;;;;;;2.60;99.90;;;;;;5078119;28;19950;-82
2023/03/03 06:59:14;;;;;;;;;;;2.60;99.90;;;;;;5079929;28;19989;-81
2023/03/03 07:01:40;;;;;;;;;;;2.60;99.90;;;;;;5078099;28;19931;-81
2023/03/03 07:04:15;;;;;;;;;;;2.60;99.90;;;;;;5071784;28;19924;-82
2023/03/03 07:06:40;;;;;;;;;;;2.60;99.90;;;;;;5076459;28;19951;-81
2023/03/03 07:09:14;;;;;;;;;;;2.70;99.90;;;;;;5062118;28;19928;-82
2023/03/03 07:11:40;;;;;;;;;;;2.70;99.90;;;;;;5077132;28;19944;-82
2023/03/03 07:14:12;;;;;;;;;;;2.70;99.90;;;;;;5075535;28;19994;-82
2023/03/03 07:16:38;;;;;;;;;;;2.70;99.90;;;;;;5078319;28;19928;-82
2023/03/03 07:19:13;;;;;;;;;;;2.70;99.90;;;;;;5074172;28;19931;-81
2023/03/03 07:21:40;;;;;;;;;;;2.70;99.90;;;;;;5076894;28;19924;-81
2023/03/03 07:24:23;;;;;;;;;;;2.70;99.90;;;;;;5078790;28;19924;-82
2023/03/03 07:26:50;;;;;;;;;;;2.70;99.90;;;;;;5077772;28;19931;-82
2023/03/03 07:29:15;;;;;;;;;;;2.70;99.90;;;;;;5076989;28;19928;-82
2023/03/03 07:31:42;;;;;;;;;;;2.70;99.90;;;;;;5074337;28;19969;-81
2023/03/03 07:34:21;;;;;;;;;;;2.80;99.90;;;;;;5068292;28;19924;-82
2023/03/03 07:36:47;;;;;;;;;;;2.70;99.90;;;;;;5079158;28;19931;-81
2023/03/03 07:39:28;;;;;;;;;;;2.70;99.90;;;;;;5074799;28;19935;-82
2023/03/03 07:41:59;;;;;;;;;;;2.80;99.90;;;;;;5067280;28;19924;-82
2023/03/03 07:44:33;;;;;;;;;;;2.80;99.90;;;;;;5075292;28;19924;-82
2023/03/03 07:47:11;;;;;;;;;;;2.90;99.90;;;;;;5083979;28;19931;-82
2023/03/03 07:49:37;;;;;;;;;;;2.90;99.90;;;;;;5079807;28;19928;-82
2023/03/03 07:52:24;;;;;;;;;;;2.90;99.90;;;;;;5065964;28;20319;-82
2023/03/03 07:54:50;;;;;;;;;;;3.00;99.90;;;;;;5064893;28;19940;-82
2023/03/03 07:57:16;;;;;;;;;;;3.00;99.90;;;;;;5060618;28;19973;-82
2023/03/03 08:00:01;;;;;;;;;;;3.00;99.90;;;;;;5062946;28;19966;-83
2023/03/03 08:02:44;;;;;;;;;;;3.10;99.90;;;;;;5082845;28;19939;-82
2023/03/03 08:05:19;;;;;;;;;;;3.10;99.90;;;;;;5058423;28;19999;-82
2023/03/03 08:07:44;;;;;;;;;;;3.20;99.90;;;;;;5058676;28;19947;-82
2023/03/03 08:10:29;;;;;;;;;;;3.10;99.90;;;;;;5054251;28;19928;-83
2023/03/03 08:12:54;;;;;;;;;;;3.20;99.90;;;;;;5115418;28;19928;-82
2023/03/03 08:15:22;;;;;;;;;;;3.20;99.90;;;;;;5078892;28;19970;-82
2023/03/03 08:17:48;;;;;;;;;;;3.30;99.90;;;;;;5076690;28;19931;-82
2023/03/03 08:20:52;;;;;;;;;;;3.30;99.90;;;;;;5078445;28;19932;-82
2023/03/03 08:23:19;;;;;;;;;;;3.30;99.90;;;;;;4989978;28;19952;-82
2023/03/03 08:25:46;;;;;;;;;;;3.40;99.90;;;;;;5016545;28;20079;-82
2023/03/03 08:28:12;;;;;;;;;;;3.40;99.90;;;;;;5050733;28;20082;-82
2023/03/03 08:30:38;;;;;;;;;;;3.40;99.90;;;;;;5077225;28;19997;-82
2023/03/03 08:33:04;;;;;;;;;;;3.40;99.90;;;;;;5078321;28;19924;-82
2023/03/03 08:35:29;;;;;;;;;;;3.40;99.90;;;;;;5060303;28;20064;-82
2023/03/03 08:37:55;;;;;;;;;;;3.50;99.90;;;;;;5061598;28;19931;-82
2023/03/03 08:40:21;;;;;;;;;;;3.50;99.90;;;;;;5077778;28;20020;-82
2023/03/03 08:42:46;;;;;;;;;;;3.50;99.90;;;;;;5077700;28;19924;-83
2023/03/03 08:45:12;;;;;;;;;;;3.60;99.90;;;;;;5061807;28;20297;-82
2023/03/03 08:47:37;;;;;;;;;;;3.80;99.90;;;;;;5060462;28;19932;-82
2023/03/03 08:50:04;;;;;;;;;;;3.90;99.90;;;;;;5078392;28;19935;-82
2023/03/03 08:52:29;;;;;;;;;;;4.00;99.90;;;;;;5076519;28;19928;-82
2023/03/03 08:54:55;;;;;;;;;;;4.10;99.90;;;;;;5063630;28;19931;-82
2023/03/03 08:57:20;;;;;;;;;;;4.10;99.90;;;;;;5064747;28;19967;-82
2023/03/03 08:59:46;;;;;;;;;;;4.10;99.90;;;;;;5097984;28;19928;-83
2023/03/03 09:02:12;;;;;;;;;;;4.10;99.90;;;;;;5075074;28;19924;-83
2023/03/03 09:04:39;;;;;;;;;;;4.10;99.90;;;;;;5056879;28;20204;-82
2023/03/03 09:07:05;;;;;;;;;;;4.10;99.90;;;;;;5080263;28;20115;-82
2023/03/03 09:09:31;;;;;;;;;;;4.20;99.90;;;;;;5051259;28;19947;-82
2023/03/03 09:11:57;;;;;;;;;;;4.20;99.90;;;;;;5082078;28;19924;-82
2023/03/03 09:14:25;;;;;;;;;;;4.30;99.90;;;;;;5080423;28;20307;-82
2023/03/03 09:16:51;;;;;;;;;;;4.30;99.90;;;;;;5069233;28;19924;-82
2023/03/03 09:19:20;;;;;;;;;;;4.30;99.90;;;;;;5079719;28;19931;-82
2023/03/03 09:21:46;;;;;;;;;;;4.20;99.90;;;;;;5080124;28;19928;-82
2023/03/03 09:24:18;;;;;;;;;;;4.20;99.90;;;;;;5117870;27;19959;-82
2023/03/03 09:26:47;;;;;;;;;;;4.40;99.90;;;;;;5079903;28;19963;-82
2023/03/03 09:29:13;;;;;;;;;;;4.40;99.90;;;;;;5081548;28;19932;-82
2023/03/03 09:31:41;;;;;;;;;;;4.60;99.90;;;;;;5080478;28;20421;-82
2023/03/03 09:34:15;;;;;;;;;;;4.50;99.90;;;;;;5097310;28;20350;-82
2023/03/03 09:36:41;;;;;;;;;;;4.70;99.90;;;;;;5065166;28;20206;-82
2023/03/03 09:39:19;;;;;;;;;;;4.70;99.90;;;;;;5106430;28;19924;-82
2023/03/03 09:42:06;;;;;;;;;;;4.80;99.90;;;;;;5118903;27;19987;-82
2023/03/03 09:44:55;;;;;;;;;;;4.70;99.90;;;;;;5080304;28;19924;-82
2023/03/03 09:47:29;;;;;;;;;;;4.70;99.90;;;;;;5079928;28;19931;-82
2023/03/03 09:50:04;;;;;;;;;;;4.70;99.90;;;;;;5081396;28;19924;-82
2023/03/03 09:52:36;;;;;;;;;;;4.70;99.90;;;;;;5079479;28;19950;-82
2023/03/03 09:55:30;;;;;;;;;;;4.60;99.90;;;;;;5132237;27;19931;-82
2023/03/03 09:58:15;;;;;;;;;;;4.60;99.90;;;;;;5044579;28;19976;-82
2023/03/03 10:00:59;;;;;;;;;;;4.60;99.90;;;;;;5079434;28;20073;-82
2023/03/03 10:03:45;;;;;;;;;;;4.60;99.90;;;;;;5077184;28;19975;-83
2023/03/03 10:06:14;;;;;;;;;;;4.60;99.90;;;;;;5089253;28;19950;-82
2023/03/03 10:08:47;;;;;;;;;;;4.60;99.90;;;;;;5063840;28;19925;-82
2023/03/03 10:11:18;;;;;;;;;;;4.70;99.90;;;;;;5068349;28;19924;-68
2023/03/03 10:13:52;;;;;;;;;;;4.70;99.90;;;;;;5096677;28;19934;-82
2023/03/03 10:16:24;;;;;;;;;;;4.70;99.90;;;;;;5080614;28;19928;-82
2023/03/03 10:19:22;;;;;;;;;;;4.80;99.90;;;;;;5065752;28;19956;-82
2023/03/03 10:21:58;;;;;;;;;;;4.80;99.90;;;;;;5062613;28;19939;-82
2023/03/03 10:24:27;;;;;;;;;;;4.80;99.90;;;;;;5080398;28;19929;-82
2023/03/03 10:27:21;;;;;;;;;;;4.90;99.90;;;;;;5095553;28;19924;-83
2023/03/03 10:29:58;;;;;;;;;;;5.00;99.90;;;;;;5065880;28;19953;-82
2023/03/03 10:32:44;;;;;;;;;;;5.00;99.90;;;;;;5080299;28;19928;-82
2023/03/03 10:35:13;;;;;;;;;;;5.10;99.90;;;;;;5063845;28;19924;-82
2023/03/03 10:37:47;;;;;;;;;;;5.20;99.90;;;;;;5109008;28;19957;-82
2023/03/03 10:40:32;;;;;;;;;;;5.20;99.90;;;;;;5079603;28;19951;-82
2023/03/03 10:42:58;;;;;;;;;;;5.30;99.90;;;;;;5078620;28;19932;-82
2023/03/03 10:46:02;;;;;;;;;;;5.30;99.90;;;;;;5080319;28;19982;-82
2023/03/03 10:48:46;;;;;;;;;;;5.40;99.90;;;;;;5020633;28;20470;-82
2023/03/03 10:51:41;;;;;;;;;;;5.50;99.90;;;;;;5018792;28;20293;-82
2023/03/03 10:54:18;;;;;;;;;;;5.60;99.90;;;;;;5044383;28;19928;-82
2023/03/03 10:56:53;;;;;;;;;;;5.70;99.90;;;;;;5077882;28;19924;-82
2023/03/03 10:59:38;;;;;;;;;;;5.80;99.90;;;;;;5079745;28;19977;-83
2023/03/03 11:02:05;;;;;;;;;;;5.90;99.90;;;;;;5079518;28;19928;-82
2023/03/03 11:04:37;;;;;;;;;;;5.90;99.90;;;;;;5095034;28;19928;-82
2023/03/03 11:07:11;;;;;;;;;;;6.10;99.90;;;;;;5078427;28;19924;-82
2023/03/03 11:09:46;;;;;;;;;;;6.20;99.90;;;;;;5066327;28;19924;-82
2023/03/03 11:12:30;;;;;;;;;;;6.20;99.90;;;;;;5077728;28;20020;-82
2023/03/03 11:15:19;;;;;;;;;;;6.30;99.90;;;;;;5069532;28;19931;-82
2023/03/03 11:18:04;;;;;;;;;;;6.40;99.90;;;;;;5087218;28;19928;-82
2023/03/03 11:20:32;;;;;;;;;;;6.50;99.90;;;;;;5079690;28;19931;-82
2023/03/03 11:23:25;;;;;;;;;;;6.60;99.90;;;;;;5115240;27;19934;-82
2023/03/03 11:26:08;;;;;;;;;;;6.60;99.90;;;;;;5078404;28;19989;-82
2023/03/03 11:28:52;;;;;;;;;;;6.70;99.90;;;;;;5080289;28;19928;-82
2023/03/03 11:31:29;;;;;;;;;;;6.70;99.90;;;;;;5078601;28;19963;-82
2023/03/03 11:33:58;;;;;;;;;;;6.80;99.90;;;;;;5079600;28;19964;-82
2023/03/03 11:36:30;;;;;;;;;;;6.80;99.90;;;;;;5079760;28;19954;-82
2023/03/03 11:39:02;;;;;;;;;;;6.90;99.90;;;;;;5077891;28;20038;-82
2023/03/03 11:41:36;;;;;;;;;;;7.00;99.90;;;;;;5079050;28;19943;-82
2023/03/03 11:44:11;;;;;;;;;;;7.10;99.90;;;;;;5077542;28;19928;-82
2023/03/03 11:46:41;;;;;;;;;;;7.10;99.90;;;;;;5064491;28;20049;-82
2023/03/03 11:49:30;;;;;;;;;;;7.20;99.90;;;;;;5078866;28;19924;-82
2023/03/03 11:52:09;;;;;;;;;;;7.20;99.90;;;;;;5085917;28;19924;-82
2023/03/03 11:54:35;;;;;;;;;;;7.20;99.90;;;;;;5078459;28;20578;-82
2023/03/03 11:57:13;;;;;;;;;;;7.20;99.90;;;;;;5077310;28;19924;-81
2023/03/03 11:59:54;;;;;;;;;;;7.20;99.90;;;;;;5078182;28;19935;-81
2023/03/03 12:02:42;;;;;;;;;;;7.40;99.90;;;;;;5095912;28;19924;-81
2023/03/03 12:05:11;;;;;;;;;;;7.60;99.90;;;;;;5076882;28;20398;-81
2023/03/03 12:07:55;;;;;;;;;;;8.00;99.90;;;;;;5072851;28;19924;-83
2023/03/03 12:10:31;;;;;;;;;;;8.30;99.90;;;;;;5089189;28;19924;-82
2023/03/03 12:13:15;;;;;;;;;;;8.50;99.90;;;;;;5077084;28;19924;-81
2023/03/03 12:15:47;;;;;;;;;;;8.60;99.90;;;;;;5078518;28;19945;-81
2023/03/03 12:18:31;;;;;;;;;;;8.70;99.90;;;;;;5076996;28;19943;-81
2023/03/03 12:21:13;;;;;;;;;;;8.50;99.90;;;;;;5078209;28;20414;-82
2023/03/03 12:23:45;;;;;;;;;;;8.40;99.90;;;;;;5095205;28;20286;-81
2023/03/03 12:26:30;;;;;;;;;;;8.30;99.90;;;;;;5076512;28;19935;-82
2023/03/03 12:29:16;;;;;;;;;;;8.30;99.90;;;;;;5078048;28;19924;-82
2023/03/03 12:31:51;;;;;;;;;;;8.20;99.90;;;;;;5070066;28;19943;-82
2023/03/03 12:34:20;;;;;;;;;;;8.10;99.90;;;;;;5081583;28;19928;-82
2023/03/03 12:37:04;;;;;;;;;;;8.00;99.90;;;;;;5082983;28;19955;-82
2023/03/03 12:39:38;;;;;;;;;;;7.90;99.90;;;;;;5081048;28;19924;-82
2023/03/03 12:42:03;;;;;;;;;;;7.90;99.90;;;;;;5082819;28;19928;-82
2023/03/03 12:44:35;;;;;;;;;;;7.90;99.90;;;;;;5082007;28;19946;-82
2023/03/03 12:47:07;;;;;;;;;;;7.90;99.90;;;;;;5082337;28;19986;-82
2023/03/03 12:49:47;;;;;;;;;;;7.90;99.90;;;;;;5068519;28;19924;-82
2023/03/03 12:52:30;;;;;;;;;;;7.90;99.90;;;;;;5080880;28;19932;-81
2023/03/03 12:55:05;;;;;;;;;;;7.80;99.90;;;;;;5082013;28;19947;-82
2023/03/03 12:57:42;;;;;;;;;;;7.80;99.90;;;;;;5081915;28;19970;-82
2023/03/03 13:00:20;;;;;;;;;;;7.70;99.90;;;;;;5080541;28;20324;-82
2023/03/03 13:03:01;;;;;;;;;;;7.80;99.90;;;;;;5087362;28;19924;-82
2023/03/03 13:05:34;;;;;;;;;;;7.80;99.90;;;;;;5080186;28;19931;-82
2023/03/03 13:08:00;;;;;;;;;;;7.80;99.90;;;;;;5068580;28;19931;-82
2023/03/03 13:10:40;;;;;;;;;;;7.90;99.90;;;;;;5076581;28;19928;-82
2023/03/03 13:13:17;;;;;;;;;;;8.00;99.90;;;;;;5079827;28;19932;-82
2023/03/03 13:15:55;;;;;;;;;;;8.10;99.90;;;;;;5099052;28;19928;-82
2023/03/03 13:18:27;;;;;;;;;;;8.10;99.90;;;;;;5080113;28;20808;-82
2023/03/03 13:21:10;;;;;;;;;;;8.20;99.90;;;;;;5081272;28;19930;-82
2023/03/03 13:23:39;;;;;;;;;;;8.30;99.90;;;;;;5081592;28;19924;-81
2023/03/03 13:26:21;;;;;;;;;;;8.30;99.90;;;;;;5079675;28;19987;-82
2023/03/03 13:28:54;;;;;;;;;;;8.30;99.90;;;;;;5081608;28;19924;-82
2023/03/03 13:31:21;;;;;;;;;;;8.40;99.90;;;;;;5080184;28;20007;-82
2023/03/03 13:33:54;;;;;;;;;;;8.40;99.90;;;;;;5070181;28;20244;-82
2023/03/03 13:36:21;;;;;;;;;;;8.50;99.90;;;;;;5079805;28;19928;-81
2023/03/03 13:38:48;;;;;;;;;;;8.50;99.90;;;;;;5079673;28;19975;-82
2023/03/03 13:41:23;;;;;;;;;;;8.50;99.90;;;;;;5081142;28;20022;-82
2023/03/03 13:44:10;;;;;;;;;;;8.50;99.90;;;;;;5078779;28;19924;-82
2023/03/03 13:46:59;;;;;;;;;;;8.50;99.90;;;;;;5080543;28;19963;-82
2023/03/03 13:49:44;;;;;;;;;;;8.50;99.90;;;;;;5073031;28;19935;-82
2023/03/03 13:52:12;;;;;;;;;;;8.50;99.90;;;;;;5118709;27;20374;-82
2023/03/03 13:54:44;;;;;;;;;;;8.60;99.90;;;;;;5080683;28;19946;-82
2023/03/03 13:57:28;;;;;;;;;;;8.60;99.90;;;;;;5079769;28;19924;-82
2023/03/03 13:59:57;;;;;;;;;;;8.60;99.90;;;;;;5079583;28;20006;-82
2023/03/03 14:02:39;;;;;;;;;;;8.40;99.90;;;;;;5097788;28;19924;-82
2023/03/03 14:05:31;;;;;;;;;;;8.30;99.90;;;;;;5078787;28;19932;-82
2023/03/03 14:07:58;;;;;;;;;;;8.50;99.90;;;;;;5048696;28;19970;-82
2023/03/03 14:10:31;;;;;;;;;;;8.70;99.90;;;;;;5091834;28;19960;-82
2023/03/03 14:13:17;;;;;;;;;;;8.70;99.90;;;;;;5079504;28;20005;-82
2023/03/03 14:15:50;;;;;;;;;;;8.70;99.90;;;;;;5069604;28;19924;-82
2023/03/03 14:18:22;;;;;;;;;;;8.80;99.90;;;;;;5078835;28;19973;-82
2023/03/03 14:20:55;;;;;;;;;;;8.90;99.90;;;;;;5080144;28;20014;-82
2023/03/03 14:23:44;;;;;;;;;;;9.10;99.90;;;;;;5079890;28;19955;-82
2023/03/03 14:26:10;;;;;;;;;;;9.20;99.90;;;;;;5078044;28;19959;-82
2023/03/03 14:28:37;;;;;;;;;;;9.40;99.90;;;;;;5080685;28;19924;-81
2023/03/03 14:31:18;;;;;;;;;;;9.60;99.90;;;;;;5078418;28;20095;-82
2023/03/03 14:33:55;;;;;;;;;;;9.70;99.90;;;;;;5079899;28;20026;-82
2023/03/03 14:36:25;;;;;;;;;;;9.70;99.90;;;;;;5080114;28;19934;-82
2023/03/03 14:38:50;;;;;;;;;;;9.80;99.90;;;;;;5095486;28;19924;-83
2023/03/03 14:41:18;;;;;;;;;;;9.80;99.90;;;;;;5080076;28;19931;-82
2023/03/03 14:43:56;;;;;;;;;;;9.80;99.00;;;;;;5078205;28;20003;-82
2023/03/03 14:46:35;;;;;;;;;;;9.80;99.90;;;;;;5079993;28;20109;-81
2023/03/03 14:49:02;;;;;;;;;;;9.80;99.60;;;;;;5080012;28;19928;-81
2023/03/03 14:51:48;;;;;;;;;;;9.80;99.60;;;;;;5078547;28;20337;-81